Empire Sandy — VCTG — position and weather

sailwx.info

Track history (hours):
 
Tides and Currents Weather Stations Pressure Air Temp Water Temp Dewpoint Dewpoint Depression Visibility Wind Speed Wind Dir Waves Ship Positions

Empire Sandy (Canada)

Ship's website: http://www.empiresandy.com/

Last reported at 2019-Aug-08 00:26 UTC. Time now 2019-Aug-22 08:53 UTC.
Position N 42°29' W 082°44'.
Warning: this ship's position is 14 days out of date.

Length 61 m.

Type: Sailing vessel. MMSI: 316225000.

Date/timePositionNaut miles runAvg speedWind from/ knotsBaromVisibWave heightAir tempDewpointWater temp
2019-Aug-08 00:26N 42°29' W 082°44'2 5.6
2019-Aug-08 00:00N 42°27' W 082°46'3 5.3
2019-Aug-07 23:23N 42°25' W 082°49'3 5.0
2019-Aug-07 22:47N 42°23' W 082°52'3 4.8
2019-Aug-07 22:11N 42°21' W 082°55'1 4.0
2019-Aug-07 22:00N 42°21' W 082°56'2 4.2
2019-Aug-07 21:27N 42°20' W 082°59'2 4.2
2019-Aug-07 21:01N 42°20' W 083°01'2 4.0
2019-Aug-07 20:31N 42°19' W 083°04'2 3.6
2019-Aug-07 20:00N 42°18' W 083°06'2 4.0
2019-Aug-07 19:31N 42°16' W 083°07'2 4.0
2019-Aug-07 19:00N 42°14' W 083°08'2 4.1
2019-Aug-07 18:31N 42°12' W 083°08'2 4.6
2019-Aug-07 18:00N 42°10' W 083°08'  
Track history (hours):
 
Tides and Currents Weather Stations Pressure Air Temp Water Temp Dewpoint Dewpoint Depression Visibility Wind Speed Wind Dir Waves Ship Positions

Empire Sandy (Canada)

Ship's website: http://www.empiresandy.com/

Last reported at 2019-Aug-08 00:26 UTC. Time now 2019-Aug-22 08:53 UTC.
Position N 42°29' W 082°44'.
Warning: this ship's position is 14 days out of date.

Length 61 m.

Type: Sailing vessel. MMSI: 316225000.

Date/timePositionNaut miles runAvg speedWind from/ knotsBaromVisibWave heightAir tempDewpointWater temp
2019-Aug-08 00:26N 42°29' W 082°44'2 5.6
2019-Aug-08 00:00N 42°27' W 082°46'3 5.3
2019-Aug-07 23:23N 42°25' W 082°49'3 5.0
2019-Aug-07 22:47N 42°23' W 082°52'3 4.8
2019-Aug-07 22:11N 42°21' W 082°55'1 4.0
2019-Aug-07 22:00N 42°21' W 082°56'2 4.2
2019-Aug-07 21:27N 42°20' W 082°59'2 4.2
2019-Aug-07 21:01N 42°20' W 083°01'2 4.0
2019-Aug-07 20:31N 42°19' W 083°04'2 3.6
2019-Aug-07 20:00N 42°18' W 083°06'2 4.0
2019-Aug-07 19:31N 42°16' W 083°07'2 4.0
2019-Aug-07 19:00N 42°14' W 083°08'2 4.1
2019-Aug-07 18:31N 42°12' W 083°08'2 4.6
2019-Aug-07 18:00N 42°10' W 083°08'  

Dump ship's entire track history